KCGF/CGF METAR and TAF weather

Enter ICAO airport designator
Station Type Date Time Source
KCGF METAR 2018/04/21 10:45 UTC NOAA

KCGF 211045Z 11004KT 10SM SCT120 M03/M05 A3048


Station Type Date Time Source
KCGF Decoded METAR 2018/04/21 10:45 UTC NOAA

Cleveland / Cuyahoga, OH, United States (KCGF) 41-34N 081-29W
Apr 21, 2018 - 06:45 AM EDT / 2018.04.21 1045 UTC
Wind: from the ESE (110 degrees) at 5 MPH (4 KT):0
Visibility: 10 mile(s):0
Sky conditions: partly cloudy
Temperature: 26 F (-3 C)
Windchill: 19 F (-7 C):1
Dew Point: 23 F (-5 C)
Relative Humidity: 86%
Pressure (altimeter): 30.48 in. Hg (1032 hPa)
ob: KCGF 211045Z 11004KT 10SM SCT120 M03/M05 A3048
cycle: 11

Station Type Date Time Source
KCGF TAF 2016/07/19 12:36 UTC NOAA

TAF KCGF 191136Z 1912/2012 VRB05KT P6SM SCT080
FM191400 33008KT P6SM SCT040
FM191900 35008KT P6SM SCT060
FM200000 04003KT P6SM SCT080
FM200700 14003KT P6SM SKC


Example: see airport list